Port Jervis, New York
Current Conditions -  °F | °C
As of 11:53 PM on Sunday 21 Dec 2014 (Local Time) from KFWN Reporting Station
Overcast Overcast  
Wind Chill: 25°   Ceiling: 3000
Heat Index: 31°   Visibility: 10mi
Dew Point: 26°   Wind: 6mph
Humidity: 82%   Direction: 30°NNE
Pressure: 30.33"   Gusts: NA
Location:  41.37°N, 74.69°W
Report Text: KFWN 220453Z AUTO 03005KT 10SM OVC030 M01/M03 A3033 RMK AO2 SLP273 T10061033 400171022
Loading
Personal Weather Stations






























Interactive Weather Map New forecast layout! Learn more

10-Day Weather Forecast

Advertisements
Track Severe Weather on mobile